createdAt,value
2016-06-23T00:00:32.112Z,69.09
2016-06-23T00:01:32.115Z,69.09
2016-06-23T00:02:32.112Z,69.19
2016-06-23T00:03:32.120Z,69.09
2016-06-23T00:04:32.123Z,69.29
2016-06-23T00:05:32.119Z,69.48
2016-06-23T00:06:32.135Z,69.87
2016-06-23T00:07:32.131Z,69.64
2016-06-23T00:08:32.128Z,69.73
2016-06-23T00:09:32.128Z,69.73
2016-06-23T00:10:32.139Z,70.31
2016-06-23T00:11:32.134Z,70.5
2016-06-23T00:12:32.135Z,70.6
2016-06-23T00:13:32.133Z,70.98
2016-06-23T00:14:32.144Z,70.7
2016-06-23T00:15:32.139Z,71.14
2016-06-23T00:16:32.144Z,71.34
2016-06-23T00:17:32.239Z,72.3
2016-06-23T00:18:32.162Z,71.91
2016-06-23T00:19:32.153Z,72.49
2016-06-23T00:20:32.150Z,72.39
2016-06-23T00:21:32.159Z,72.88
2016-06-23T00:22:32.158Z,72.59
2016-06-23T00:23:32.157Z,72.68
2016-06-23T00:24:32.152Z,72.65
2016-06-23T00:25:32.173Z,73.32
2016-06-23T00:26:32.162Z,73.13
2016-06-23T00:27:32.209Z,72.94
2016-06-23T00:28:32.158Z,73.51
2016-06-23T00:29:32.164Z,73.13
2016-06-23T00:30:32.168Z,73.9
2016-06-23T00:31:32.173Z,73.8
2016-06-23T00:32:32.170Z,73.71
2016-06-23T00:33:32.169Z,73.99
2016-06-23T00:34:32.183Z,74.09
2016-06-23T00:35:32.180Z,74.44
2016-06-23T00:36:32.176Z,74.92
2016-06-23T00:37:32.188Z,74.73
2016-06-23T00:38:32.191Z,75.4
2016-06-23T00:39:32.184Z,75.31
2016-06-23T00:40:32.186Z,75.69
2016-06-23T00:41:31.592Z,75.79
2016-06-23T00:42:32.190Z,76.26
2016-06-23T00:43:32.191Z,75.88
2016-06-23T00:44:32.207Z,76.61
2016-06-23T00:45:32.201Z,76.56
2016-06-23T00:46:32.199Z,76.56
2016-06-23T00:47:32.204Z,76.71
2016-06-23T00:48:32.207Z,77.19
2016-06-23T00:49:32.215Z,77.38
2016-06-23T00:50:32.210Z,77.38
2016-06-23T00:51:32.207Z,77.76
2016-06-23T00:52:32.216Z,77.29
2016-06-23T00:53:32.210Z,77.76
2016-06-23T00:54:32.215Z,78.25
2016-06-23T00:55:32.217Z,77.86
2016-06-23T00:56:32.228Z,78.44
2016-06-23T00:57:32.228Z,78.34
2016-06-23T00:58:32.225Z,78.73
2016-06-23T00:59:32.228Z,78.63
2016-06-23T01:00:32.225Z,78.98
2016-06-23T01:01:32.235Z,79.3
2016-06-23T01:02:32.236Z,79.69
2016-06-23T01:03:32.246Z,79.55
2016-06-23T01:04:32.243Z,79.46
2016-06-23T01:05:32.239Z,79.94
2016-06-23T01:06:32.239Z,79.75
2016-06-23T01:07:32.303Z,80.13
2016-06-23T01:08:32.277Z,79.84
2016-06-23T01:09:32.246Z,80.22
2016-06-23T01:10:32.245Z,79.94
2016-06-23T01:11:32.368Z,80.61
2016-06-23T01:12:32.373Z,80.71
2016-06-23T01:13:32.347Z,80.42
2016-06-23T01:14:32.257Z,80.9
2016-06-23T01:15:32.254Z,80.51
2016-06-23T01:16:32.260Z,81.19
2016-06-23T01:17:32.255Z,81.24
2016-06-23T01:18:32.259Z,81.15
2016-06-23T01:19:32.468Z,81.24
2016-06-23T01:20:32.260Z,81.63
2016-06-23T01:21:32.267Z,81.92
2016-06-23T01:22:32.267Z,81.63
2016-06-23T01:23:32.270Z,81.53
2016-06-23T01:24:32.270Z,81.82
2016-06-23T01:25:32.270Z,82.2
2016-06-23T01:26:32.276Z,82.4
2016-06-23T01:27:32.273Z,82.59
2016-06-23T01:28:32.275Z,82.87
2016-06-23T01:29:32.282Z,82.49
2016-06-23T01:30:32.289Z,82.59
2016-06-23T01:31:32.283Z,83.41
2016-06-23T01:32:32.294Z,83.12
2016-06-23T01:33:32.295Z,83.03
2016-06-23T01:34:32.286Z,83.03
2016-06-23T01:35:32.287Z,83.41
2016-06-23T01:36:32.286Z,83.41
2016-06-23T01:37:32.297Z,83.6
2016-06-23T01:38:32.292Z,83.41
2016-06-23T01:39:32.297Z,83.31
2016-06-23T01:40:32.297Z,84.08
2016-06-23T01:41:32.299Z,83.8
2016-06-23T01:42:32.303Z,83.7
2016-06-23T01:43:32.303Z,84.27
2016-06-23T01:44:32.308Z,84.18
2016-06-23T01:45:32.305Z,84.27
2016-06-23T01:46:32.313Z,83.98
2016-06-23T01:47:32.315Z,84.56
2016-06-23T01:48:32.310Z,84.47
2016-06-23T01:49:32.312Z,84.61
2016-06-23T01:50:32.317Z,84.81
2016-06-23T01:51:32.315Z,84.33
2016-06-23T01:52:32.321Z,84.42
2016-06-23T01:53:32.320Z,84.52
2016-06-23T01:54:32.314Z,84.52
2016-06-23T01:55:32.326Z,85.1
2016-06-23T01:56:32.329Z,84.91
2016-06-23T01:57:32.326Z,85.1
2016-06-23T01:58:32.329Z,85.38
2016-06-23T01:59:32.326Z,85.28
2016-06-23T02:00:32.334Z,85.77
2016-06-23T02:01:32.335Z,86.05
2016-06-23T02:02:32.332Z,85.86
2016-06-23T02:03:31.727Z,85.67
2016-06-23T02:04:32.339Z,86.15
2016-06-23T02:05:32.348Z,86.05
2016-06-23T02:06:32.345Z,86.15
2016-06-23T02:07:32.349Z,86.44
2016-06-23T02:08:32.357Z,86.15
2016-06-23T02:09:32.349Z,86.54
2016-06-23T02:10:32.354Z,86.72
2016-06-23T02:11:32.390Z,86.82
2016-06-23T02:12:32.359Z,86.63
2016-06-23T02:13:32.351Z,86.34
2016-06-23T02:14:32.362Z,86.72
2016-06-23T02:15:32.370Z,86.68
2016-06-23T02:16:32.350Z,87.21
2016-06-23T02:17:32.401Z,87.01
2016-06-23T02:18:32.372Z,86.82
2016-06-23T02:19:32.370Z,86.82
2016-06-23T02:20:32.369Z,87.26
2016-06-23T02:21:32.368Z,87.35
2016-06-23T02:22:32.372Z,86.88
2016-06-23T02:23:32.366Z,87.16
2016-06-23T02:24:32.374Z,86.88
2016-06-23T02:25:32.375Z,87.74
2016-06-23T02:26:32.371Z,87.35
2016-06-23T02:27:32.378Z,87.74
2016-06-23T02:28:32.375Z,88.12
2016-06-23T02:29:32.375Z,87.93
2016-06-23T02:30:32.387Z,87.93
2016-06-23T02:31:32.388Z,87.84
2016-06-23T02:32:32.376Z,87.84
2016-06-23T02:33:32.394Z,88.22
2016-06-23T02:34:32.384Z,88.12
2016-06-23T02:35:32.389Z,88.02
2016-06-23T02:36:32.384Z,88.51
2016-06-23T02:37:32.395Z,88.02
2016-06-23T02:38:32.397Z,88.51
2016-06-23T02:39:32.390Z,88.22
2016-06-23T02:40:32.400Z,88.51
2016-06-23T02:41:32.397Z,88.41
2016-06-23T02:42:32.396Z,88.75
2016-06-23T02:43:32.403Z,88.51
2016-06-23T02:44:32.404Z,88.7
2016-06-23T02:45:32.402Z,88.6
2016-06-23T02:46:32.402Z,88.31
2016-06-23T02:47:32.404Z,89.37
2016-06-23T02:48:32.395Z,89.04
2016-06-23T02:49:32.409Z,89.04
2016-06-23T02:50:32.410Z,89.23
2016-06-23T02:51:32.418Z,89.13
2016-06-23T02:52:32.417Z,88.94
2016-06-23T02:53:32.421Z,88.84
2016-06-23T02:54:32.419Z,88.94
2016-06-23T02:55:32.419Z,89.04
2016-06-23T02:56:32.426Z,89.23
2016-06-23T02:57:32.413Z,89.42
2016-06-23T02:58:32.431Z,89.23
2016-06-23T02:59:32.432Z,89.61
2016-06-23T03:00:32.414Z,89.23
2016-06-23T03:01:32.438Z,89.51
2016-06-23T03:02:32.430Z,89.61
2016-06-23T03:03:32.425Z,89.61
2016-06-23T03:04:32.437Z,89.71
2016-06-23T03:05:32.433Z,89.51
2016-06-23T03:06:32.425Z,89.71
2016-06-23T03:07:32.430Z,89.51
2016-06-23T03:08:32.439Z,90
2016-06-23T03:09:32.432Z,90.38
2016-06-23T03:10:32.440Z,89.8
2016-06-23T03:11:32.439Z,90.19
2016-06-23T03:12:32.443Z,90
2016-06-23T03:13:32.443Z,90.19
2016-06-23T03:14:32.443Z,90.09
2016-06-23T03:15:32.455Z,90.23
2016-06-23T03:16:32.454Z,90.47
2016-06-23T03:17:32.451Z,90.47
2016-06-23T03:18:32.463Z,90.33
2016-06-23T03:19:32.452Z,90.38
2016-06-23T03:20:32.452Z,90.62
2016-06-23T03:21:32.458Z,90.47
2016-06-23T03:22:32.455Z,90.91
2016-06-23T03:23:32.459Z,90.86
2016-06-23T03:24:32.467Z,90.76
2016-06-23T03:25:32.452Z,90.86
2016-06-23T03:26:32.471Z,91.14
2016-06-23T03:27:32.466Z,90.95
2016-06-23T03:28:32.458Z,90.91
2016-06-23T03:29:32.473Z,91.34
2016-06-23T03:30:32.471Z,90.72
2016-06-23T03:31:32.468Z,90.95
2016-06-23T03:32:32.475Z,91.05
2016-06-23T03:33:32.470Z,91.43
2016-06-23T03:34:32.478Z,91.05
2016-06-23T03:35:32.474Z,91.53
2016-06-23T03:36:32.479Z,91.43
2016-06-23T03:37:32.486Z,91.24
2016-06-23T03:38:32.474Z,91.63
2016-06-23T03:39:32.473Z,91.34
2016-06-23T03:40:32.483Z,91.34
2016-06-23T03:41:32.477Z,91.53
2016-06-23T03:42:32.478Z,91.63
2016-06-23T03:43:32.484Z,91.53
2016-06-23T03:44:32.481Z,91.53
2016-06-23T03:45:32.492Z,91.53
2016-06-23T03:46:32.486Z,91.34
2016-06-23T03:47:32.491Z,91.53
2016-06-23T03:48:32.501Z,91.24
2016-06-23T03:49:32.500Z,91.43
2016-06-23T03:50:32.510Z,92.01
2016-06-23T03:51:32.505Z,92.01
2016-06-23T03:52:32.496Z,92.58
2016-06-23T03:53:32.491Z,92.34
2016-06-23T03:54:32.497Z,92.96
2016-06-23T03:55:32.494Z,92.53
2016-06-23T03:56:32.498Z,92.19
2016-06-23T03:57:32.495Z,91.47
2016-06-23T03:58:32.499Z,90.45
2016-06-23T03:59:32.501Z,89.15
2016-06-23T04:00:32.503Z,88.04
2016-06-23T04:01:32.504Z,86.88
2016-06-23T04:02:32.509Z,85.09
2016-06-23T04:03:32.513Z,83.4
2016-06-23T04:04:32.507Z,81.22
2016-06-23T04:05:32.513Z,79.24
2016-06-23T04:06:32.511Z,77.25
2016-06-23T04:07:32.516Z,75.06
2016-06-23T04:08:32.514Z,73.13
2016-06-23T04:09:32.518Z,70.88
2016-06-23T04:10:32.521Z,68.88
2016-06-23T04:11:32.512Z,66.85
2016-06-23T04:12:32.516Z,65.24
2016-06-23T04:13:32.580Z,63.24
2016-06-23T04:14:32.525Z,62.37
2016-06-23T04:15:32.531Z,60.36
2016-06-23T04:16:32.530Z,58.74
2016-06-23T04:17:32.774Z,57.8
2016-06-23T04:18:32.528Z,56.96
2016-06-23T04:19:32.530Z,55.43
2016-06-23T04:20:32.526Z,54.07
2016-06-23T04:21:32.534Z,52.67
2016-06-23T04:22:32.529Z,51.01
2016-06-23T04:23:32.526Z,50.16
2016-06-23T04:24:32.537Z,49.61
2016-06-23T04:25:32.538Z,48.44
2016-06-23T04:26:32.536Z,47.78
2016-06-23T04:27:32.539Z,46.54
2016-06-23T04:28:32.545Z,45.49
2016-06-23T04:29:32.540Z,44.83
2016-06-23T04:30:32.549Z,44.07
2016-06-23T04:31:32.543Z,43.29
2016-06-23T04:32:32.553Z,42.54
2016-06-23T04:33:32.559Z,42.07
2016-06-23T04:34:32.543Z,40.43
2016-06-23T04:35:32.550Z,39.67
2016-06-23T04:36:32.553Z,38.89
2016-06-23T04:37:32.556Z,38.02
2016-06-23T04:38:32.561Z,37.65
2016-06-23T04:39:32.563Z,36.87
2016-06-23T04:40:32.558Z,35.91
2016-06-23T04:41:32.570Z,35.44
2016-06-23T04:42:32.570Z,34.38
2016-06-23T04:43:32.563Z,33.59
2016-06-23T04:44:32.566Z,33.02
2016-06-23T04:45:32.595Z,32.74
2016-06-23T04:46:32.565Z,32.35
2016-06-23T04:47:32.578Z,31.38
2016-06-23T04:48:32.571Z,30.81
2016-06-23T04:49:32.577Z,30.33
2016-06-23T04:50:32.572Z,29.55
2016-06-23T04:51:32.572Z,29.07
2016-06-23T04:52:32.591Z,28.79
2016-06-23T04:53:32.575Z,28.2
2016-06-23T04:54:32.594Z,28.12
2016-06-23T04:55:32.594Z,27.23
2016-06-23T04:56:32.578Z,26.85
2016-06-23T04:57:32.588Z,26.37
2016-06-23T04:58:32.584Z,25.99
2016-06-23T04:59:32.590Z,25.61
2016-06-23T05:00:32.586Z,25.42
2016-06-23T05:01:32.594Z,24.93
2016-06-23T05:02:32.586Z,24.35
2016-06-23T05:03:32.596Z,24.27
2016-06-23T05:04:32.591Z,23.48
2016-06-23T05:05:32.599Z,23
2016-06-23T05:06:32.603Z,22.51
2016-06-23T05:07:32.612Z,22.61
2016-06-23T05:08:32.603Z,22.03
2016-06-23T05:09:32.608Z,21.34
2016-06-23T05:10:32.608Z,21.25
2016-06-23T05:11:32.609Z,21.35
2016-06-23T05:12:32.610Z,20.67
2016-06-23T05:13:32.615Z,20.76
2016-06-23T05:14:32.614Z,20.08
2016-06-23T05:15:32.623Z,20.08
2016-06-23T05:16:32.619Z,19.98
2016-06-23T05:17:32.626Z,19.79
2016-06-23T05:18:32.625Z,19.59
2016-06-23T05:19:32.632Z,19.29
2016-06-23T05:20:32.622Z,19.29
2016-06-23T05:21:32.638Z,18.9
2016-06-23T05:22:32.634Z,18.9
2016-06-23T05:23:32.630Z,18.7
2016-06-23T05:24:32.661Z,18.7
2016-06-23T05:25:32.633Z,18.7
2016-06-23T05:26:32.638Z,18.6
2016-06-23T05:27:32.639Z,18.61
2016-06-23T05:28:32.639Z,18.31
2016-06-23T05:29:32.647Z,18.02
2016-06-23T05:30:32.655Z,17.82
2016-06-23T05:31:32.654Z,17.54
2016-06-23T05:32:32.660Z,17.83
2016-06-23T05:33:32.651Z,17.54
2016-06-23T05:34:32.667Z,17.34
2016-06-23T05:35:32.662Z,16.75
2016-06-23T05:36:32.658Z,16.55
2016-06-23T05:37:32.667Z,16.86
2016-06-23T05:38:32.661Z,16.56
2016-06-23T05:39:32.665Z,16.47
2016-06-23T05:40:32.672Z,16.27
2016-06-23T05:41:32.667Z,16.17
2016-06-23T05:42:32.669Z,16.17
2016-06-23T05:43:32.674Z,15.97
2016-06-23T05:44:32.675Z,15.48
2016-06-23T05:45:32.682Z,15.58
2016-06-23T05:46:32.675Z,15.39
2016-06-23T05:47:32.685Z,15.39
2016-06-23T05:48:32.684Z,15.59
2016-06-23T05:49:32.684Z,15.39
2016-06-23T05:50:32.684Z,15.4
2016-06-23T05:51:32.681Z,15
2016-06-23T05:52:32.686Z,14.91
2016-06-23T05:53:32.699Z,14.42
2016-06-23T05:54:32.698Z,14.12
2016-06-23T05:55:32.709Z,14.42
2016-06-23T05:56:32.710Z,14.52
2016-06-23T05:57:32.697Z,14.23
2016-06-23T05:58:32.712Z,14.23
2016-06-23T05:59:32.708Z,14.04
2016-06-23T06:00:32.714Z,13.74
2016-06-23T06:01:32.717Z,13.24
2016-06-23T06:02:32.720Z,13.64
2016-06-23T06:03:32.736Z,13.45
2016-06-23T06:04:32.724Z,13.24
2016-06-23T06:05:32.729Z,12.85
2016-06-23T06:06:32.722Z,13.25
2016-06-23T06:07:32.740Z,12.96
2016-06-23T06:08:32.746Z,13.05
2016-06-23T06:09:32.737Z,13.15
2016-06-23T06:10:32.743Z,13.06
2016-06-23T06:11:32.741Z,12.66
2016-06-23T06:12:32.742Z,12.46
2016-06-23T06:13:32.749Z,12.96
2016-06-23T06:14:32.751Z,13.16
2016-06-23T06:15:32.744Z,12.66
2016-06-23T06:16:32.746Z,12.57
2016-06-23T06:17:32.802Z,12.27
2016-06-23T06:18:32.761Z,12.17
2016-06-23T06:19:32.756Z,12.17
2016-06-23T06:20:32.751Z,11.58
2016-06-23T06:21:32.765Z,11.68
2016-06-23T06:22:32.770Z,11.38
2016-06-23T06:23:32.763Z,11.19
2016-06-23T06:24:32.769Z,11
2016-06-23T06:25:32.773Z,10.5
2016-06-23T06:26:32.769Z,10.4
2016-06-23T06:27:32.779Z,10.41
2016-06-23T06:28:32.777Z,10.21
2016-06-23T06:29:32.786Z,10.51
2016-06-23T06:30:32.790Z,10.11
2016-06-23T06:31:32.791Z,10.02
2016-06-23T06:32:32.785Z,9.62
2016-06-23T06:33:32.786Z,9.52
2016-06-23T06:34:32.797Z,9.42
2016-06-23T06:35:32.809Z,8.92
2016-06-23T06:36:32.794Z,9.12
2016-06-23T06:37:32.797Z,9.12
2016-06-23T06:38:32.799Z,8.62
2016-06-23T06:39:32.807Z,8.33
2016-06-23T06:40:32.811Z,8.62
2016-06-23T06:41:32.810Z,8.33
2016-06-23T06:42:32.809Z,8.53
2016-06-23T06:43:32.818Z,8.42
2016-06-23T06:44:32.814Z,8.92
2016-06-23T06:45:32.825Z,8.92
2016-06-23T06:46:32.821Z,8.42
2016-06-23T06:47:32.836Z,8.62
2016-06-23T06:48:32.865Z,8.91
2016-06-23T06:49:32.855Z,9
2016-06-23T06:50:32.839Z,9.7
2016-06-23T06:51:32.841Z,9.49
2016-06-23T06:52:32.843Z,10.08
2016-06-23T06:53:32.843Z,10.47
2016-06-23T06:54:32.846Z,10.96
2016-06-23T06:55:32.856Z,11.46
2016-06-23T06:56:32.848Z,11.25
2016-06-23T06:57:32.855Z,11.85
2016-06-23T06:58:32.851Z,11.46
2016-06-23T06:59:32.856Z,11.36
2016-06-23T07:00:32.860Z,10.76
2016-06-23T07:01:32.863Z,10.86
2016-06-23T07:02:32.869Z,11.27
2016-06-23T07:03:32.864Z,11.66
2016-06-23T07:04:32.871Z,12.54
2016-06-23T07:05:32.878Z,13.03
2016-06-23T07:06:32.888Z,13.13
2016-06-23T07:07:32.868Z,12.83
2016-06-23T07:08:32.887Z,12.83
2016-06-23T07:09:32.886Z,12.54
2016-06-23T07:10:32.883Z,12.45
2016-06-23T07:11:32.900Z,12.25
2016-06-23T07:12:32.900Z,12.35
2016-06-23T07:13:32.889Z,13.04
2016-06-23T07:14:32.901Z,13.43
2016-06-23T07:15:32.902Z,14.4
2016-06-23T07:16:32.902Z,14.69
2016-06-23T07:17:33.015Z,15.18
2016-06-23T07:18:32.918Z,14.87
2016-06-23T07:19:32.907Z,14.39
2016-06-23T07:20:32.910Z,13.7
2016-06-23T07:21:32.913Z,13.52
2016-06-23T07:22:32.924Z,12.83
2016-06-23T07:23:32.928Z,12.45
2016-06-23T07:24:32.935Z,12.25
2016-06-23T07:25:32.927Z,11.76
2016-06-23T07:26:32.930Z,11.38
2016-06-23T07:27:32.939Z,11.38
2016-06-23T07:28:32.935Z,10.99
2016-06-23T07:29:32.939Z,10.99
2016-06-23T07:30:32.938Z,10.39
2016-06-23T07:31:32.949Z,10.39
2016-06-23T07:32:32.955Z,10.5
2016-06-23T07:33:32.956Z,10.8
2016-06-23T07:34:32.950Z,10.6
2016-06-23T07:35:32.956Z,10.69
2016-06-23T07:36:32.975Z,10.3
2016-06-23T07:37:32.959Z,10.31
2016-06-23T07:38:32.968Z,10.11
2016-06-23T07:39:32.966Z,10.1
2016-06-23T07:40:32.973Z,10.3
2016-06-23T07:41:32.985Z,10.31
2016-06-23T07:42:32.976Z,10.31
2016-06-23T07:43:32.998Z,10.5
2016-06-23T07:44:32.985Z,10.41
2016-06-23T07:45:32.994Z,10.5
2016-06-23T07:46:32.991Z,10.11
2016-06-23T07:47:33.013Z,10.31
2016-06-23T07:48:32.992Z,10.31
2016-06-23T07:49:32.991Z,10.41
2016-06-23T07:50:33.010Z,10.11
2016-06-23T07:51:33.029Z,10.01
2016-06-23T07:52:33.020Z,9.91
2016-06-23T07:53:33.005Z,10.02
2016-06-23T07:54:33.016Z,10.02
2016-06-23T07:55:33.037Z,10.22
2016-06-23T07:56:33.019Z,9.61
2016-06-23T07:57:33.032Z,10.02
2016-06-23T07:58:33.023Z,9.81
2016-06-23T07:59:33.019Z,10.11
2016-06-23T08:00:33.028Z,10.02
2016-06-23T08:01:33.031Z,9.52
2016-06-23T08:02:33.047Z,10.11
2016-06-23T08:03:33.033Z,10.31
2016-06-23T08:04:33.032Z,10.11
2016-06-23T08:05:33.046Z,10.5
2016-06-23T08:06:33.050Z,10.5
2016-06-23T08:07:33.051Z,10.71
2016-06-23T08:08:33.055Z,10.5
2016-06-23T08:09:33.073Z,10.31
2016-06-23T08:10:33.074Z,10.21
2016-06-23T08:11:33.058Z,10.21
2016-06-23T08:12:33.067Z,10.21
2016-06-23T08:13:33.069Z,10.8
2016-06-23T08:14:33.076Z,11.1
2016-06-23T08:15:33.077Z,11.08
2016-06-23T08:16:33.083Z,11.88
2016-06-23T08:17:33.076Z,11.68
2016-06-23T08:18:33.084Z,11.98
2016-06-23T08:19:33.087Z,11.48
2016-06-23T08:20:33.081Z,11.38
2016-06-23T08:21:33.096Z,10.99
2016-06-23T08:22:33.092Z,10.69
2016-06-23T08:23:33.104Z,10.7
2016-06-23T08:24:33.099Z,10.81
2016-06-23T08:25:33.111Z,10.11
2016-06-23T08:26:33.105Z,9.91
2016-06-23T08:27:33.274Z,10.12
2016-06-23T08:28:33.125Z,10.22
2016-06-23T08:29:33.114Z,10.32
2016-06-23T08:30:33.119Z,10.12
2016-06-23T08:31:33.124Z,10.22
2016-06-23T08:32:33.117Z,10.42
2016-06-23T08:33:33.128Z,10.32
2016-06-23T08:34:33.138Z,10.42
2016-06-23T08:35:33.133Z,10.22
2016-06-23T08:36:33.132Z,10.42
2016-06-23T08:37:33.143Z,10.02
2016-06-23T08:38:33.131Z,9.52
2016-06-23T08:39:33.139Z,9.72
2016-06-23T08:40:33.151Z,10.02
2016-06-23T08:41:33.148Z,9.42
2016-06-23T08:42:33.149Z,9.63
2016-06-23T08:43:33.153Z,9.33
2016-06-23T08:44:33.165Z,9.23
2016-06-23T08:45:33.166Z,9.23
2016-06-23T08:46:33.174Z,9.63
2016-06-23T08:47:33.175Z,9.63
2016-06-23T08:48:33.164Z,9.92
2016-06-23T08:49:33.173Z,9.92
2016-06-23T08:50:33.200Z,10.13
2016-06-23T08:51:33.185Z,10.13
2016-06-23T08:52:33.187Z,10.42
2016-06-23T08:53:33.187Z,10.33
2016-06-23T08:54:33.189Z,10.22
2016-06-23T08:55:33.194Z,10.13
2016-06-23T08:56:33.193Z,10.33
2016-06-23T08:57:33.209Z,10.83
2016-06-23T08:58:33.200Z,10.92
2016-06-23T08:59:33.207Z,10.91
2016-06-23T09:00:33.211Z,11.21
2016-06-23T09:01:33.219Z,11.51
2016-06-23T09:02:33.219Z,11.91
2016-06-23T09:03:33.222Z,11.6
2016-06-23T09:04:33.224Z,12.1
2016-06-23T09:05:33.235Z,12.39
2016-06-23T09:06:33.230Z,12.39
2016-06-23T09:07:33.237Z,12.59
2016-06-23T09:08:33.245Z,13.08
2016-06-23T09:09:33.275Z,13.47
2016-06-23T09:10:33.238Z,13.26
2016-06-23T09:11:33.243Z,13.86
2016-06-23T09:12:33.254Z,13.37
2016-06-23T09:13:33.250Z,13.17
2016-06-23T09:14:33.262Z,13.26
2016-06-23T09:15:33.260Z,13.77
2016-06-23T09:16:33.263Z,13.77
2016-06-23T09:17:33.259Z,14.07
2016-06-23T09:18:33.273Z,14.17
2016-06-23T09:19:33.474Z,13.48
2016-06-23T09:20:33.278Z,13.48
2016-06-23T09:21:33.287Z,13.57
2016-06-23T09:22:33.286Z,13.08
2016-06-23T09:23:33.291Z,13.38
2016-06-23T09:24:33.294Z,13.67
2016-06-23T09:25:33.307Z,13.76
2016-06-23T09:26:33.309Z,13.56
2016-06-23T09:27:33.329Z,14.06
2016-06-23T09:28:33.319Z,14.56
2016-06-23T09:29:33.310Z,15.24
2016-06-23T09:30:33.303Z,15.61
2016-06-23T09:31:33.315Z,15.61
2016-06-23T09:32:33.311Z,16.3
2016-06-23T09:33:33.323Z,16
2016-06-23T09:34:33.323Z,16.3
2016-06-23T09:35:33.326Z,16.2
2016-06-23T09:36:33.320Z,16.19
2016-06-23T09:37:33.340Z,16.4
2016-06-23T09:38:33.335Z,16.3
2016-06-23T09:39:33.421Z,16.19
2016-06-23T09:40:33.351Z,16.58
2016-06-23T09:41:33.351Z,16.09
2016-06-23T09:42:33.350Z,17.08
2016-06-23T09:43:33.394Z,16.88
2016-06-23T09:44:33.352Z,17.76
2016-06-23T09:45:33.353Z,18.24
2016-06-23T09:46:33.373Z,18.52
2016-06-23T09:47:33.369Z,18.91
2016-06-23T09:48:33.366Z,19.79
2016-06-23T09:49:33.366Z,20.17
2016-06-23T09:50:33.371Z,21.25
2016-06-23T09:51:33.391Z,22.41
2016-06-23T09:52:33.373Z,22.41
2016-06-23T09:53:33.385Z,23.27
2016-06-23T09:54:33.385Z,23.66
2016-06-23T09:55:33.394Z,24.05
2016-06-23T09:56:33.390Z,24.52
2016-06-23T09:57:33.403Z,25.2
2016-06-23T09:58:33.921Z,25.87
2016-06-23T09:59:33.412Z,26.92
2016-06-23T10:00:33.406Z,27.7
2016-06-23T10:01:33.407Z,28.17
2016-06-23T10:02:33.425Z,28.27
2016-06-23T10:03:33.419Z,28.65
2016-06-23T10:04:33.428Z,29.05
2016-06-23T10:05:32.834Z,29.24
2016-06-23T10:06:33.563Z,29.52
2016-06-23T10:07:33.428Z,29.43
2016-06-23T10:08:33.437Z,28.93
2016-06-23T10:09:33.442Z,28.83
2016-06-23T10:10:33.441Z,29.11
2016-06-23T10:11:33.443Z,29.21
2016-06-23T10:12:33.445Z,28.81
2016-06-23T10:13:33.454Z,28.71
2016-06-23T10:14:33.451Z,28.51
2016-06-23T10:15:33.461Z,28.61
2016-06-23T10:16:33.461Z,28.91
2016-06-23T10:17:33.516Z,28.41
2016-06-23T10:18:33.464Z,29.3
2016-06-23T10:19:33.470Z,29.49
2016-06-23T10:20:33.468Z,29.48
2016-06-23T10:21:33.489Z,29.58
2016-06-23T10:22:33.481Z,30.26
2016-06-23T10:23:33.479Z,30.94
2016-06-23T10:24:33.479Z,31.04
2016-06-23T10:25:33.504Z,31.23
2016-06-23T10:26:33.503Z,31.62
2016-06-23T10:27:33.503Z,32.2
2016-06-23T10:28:33.490Z,33.28
2016-06-23T10:29:33.502Z,33.09
2016-06-23T10:30:33.504Z,33.38
2016-06-23T10:31:32.932Z,34.34
2016-06-23T10:32:33.510Z,34.34
2016-06-23T10:33:33.511Z,34.34
2016-06-23T10:34:33.511Z,34.44
2016-06-23T10:35:33.535Z,34.34
2016-06-23T10:36:33.520Z,34.24
2016-06-23T10:37:33.542Z,34.24
2016-06-23T10:38:33.555Z,34.05
2016-06-23T10:39:33.535Z,34.44
2016-06-23T10:40:33.543Z,34.34
2016-06-23T10:41:33.537Z,34.74
2016-06-23T10:42:33.535Z,35.32
2016-06-23T10:43:33.553Z,35.52
2016-06-23T10:44:33.548Z,35.61
2016-06-23T10:45:33.554Z,35.52
2016-06-23T10:46:33.553Z,35.71
2016-06-23T10:47:34.128Z,35.61
2016-06-23T10:48:33.574Z,35.52
2016-06-23T10:49:33.562Z,35.03
2016-06-23T10:50:33.572Z,34.83
2016-06-23T10:51:33.579Z,35.32
2016-06-23T10:52:33.566Z,35.52
2016-06-23T10:53:33.578Z,35.52
2016-06-23T10:54:33.579Z,35.89
2016-06-23T10:55:33.585Z,35.91
2016-06-23T10:56:33.594Z,36.18
2016-06-23T10:57:33.585Z,35.42
2016-06-23T10:58:33.590Z,35.79
2016-06-23T10:59:33.591Z,35.89
2016-06-23T11:00:33.599Z,35.89
2016-06-23T11:01:33.597Z,35.69
2016-06-23T11:02:33.609Z,35.4
2016-06-23T11:03:33.607Z,35.6
2016-06-23T11:04:33.609Z,35.61
2016-06-23T11:05:33.612Z,35.5
2016-06-23T11:06:33.616Z,37.08
2016-06-23T11:07:33.648Z,37.55
2016-06-23T11:08:33.617Z,38.24
2016-06-23T11:09:33.622Z,37.55
2016-06-23T11:10:33.638Z,37.95
2016-06-23T11:11:33.630Z,37.65
2016-06-23T11:12:33.637Z,37.67
2016-06-23T11:13:33.641Z,37.65
2016-06-23T11:14:33.644Z,37.75
2016-06-23T11:15:34.137Z,37.35
2016-06-23T11:16:33.646Z,37.18
2016-06-23T11:17:33.651Z,36.96
2016-06-23T11:18:33.661Z,37.47
2016-06-23T11:19:33.654Z,38.14
2016-06-23T11:20:33.663Z,38.34
2016-06-23T11:21:33.663Z,38.04
2016-06-23T11:22:33.663Z,38.73
2016-06-23T11:23:33.674Z,38.53
2016-06-23T11:24:33.667Z,39.02
2016-06-23T11:25:33.668Z,39
2016-06-23T11:26:33.680Z,39.12
2016-06-23T11:27:33.679Z,39.2
2016-06-23T11:28:33.688Z,39.88
2016-06-23T11:29:33.693Z,39.78
2016-06-23T11:30:33.691Z,39.88
2016-06-23T11:31:33.710Z,40.17
2016-06-23T11:32:33.705Z,40.17
2016-06-23T11:33:34.287Z,40.08
2016-06-23T11:34:33.705Z,40.56
2016-06-23T11:35:33.698Z,40.17
2016-06-23T11:36:33.720Z,39.69
2016-06-23T11:37:33.715Z,39.78
2016-06-23T11:38:33.719Z,39.78
2016-06-23T11:39:33.718Z,39.61
2016-06-23T11:40:33.717Z,40.08
2016-06-23T11:41:33.734Z,40.37
2016-06-23T11:42:33.731Z,40.29
2016-06-23T11:43:33.733Z,40.37
2016-06-23T11:44:33.737Z,40.17
2016-06-23T11:45:33.741Z,40.37
2016-06-23T11:46:33.782Z,40.08
2016-06-23T11:47:33.746Z,40.17
2016-06-23T11:48:33.749Z,40.27
2016-06-23T11:49:33.753Z,39.78
2016-06-23T11:50:33.768Z,39.88
2016-06-23T11:51:33.762Z,39.78
2016-06-23T11:52:33.753Z,39.69
2016-06-23T11:53:33.772Z,39.98
2016-06-23T11:54:33.763Z,40.56
2016-06-23T11:55:33.770Z,40.56
2016-06-23T11:56:33.771Z,40.37
2016-06-23T11:57:33.779Z,40.17
2016-06-23T11:58:33.786Z,40.08
2016-06-23T11:59:33.787Z,40.08
2016-06-23T12:00:33.783Z,39.78
2016-06-23T12:01:33.793Z,39.88
2016-06-23T12:02:33.787Z,39.98
2016-06-23T12:03:33.803Z,40.27
2016-06-23T12:04:33.804Z,40.56
2016-06-23T12:05:33.793Z,40.47
2016-06-23T12:06:33.804Z,40.66
2016-06-23T12:07:33.835Z,40.66
2016-06-23T12:08:33.807Z,41.54
2016-06-23T12:09:33.808Z,41.62
2016-06-23T12:10:33.820Z,42.3
2016-06-23T12:11:33.841Z,42.6
2016-06-23T12:12:33.821Z,43.08
2016-06-23T12:13:33.824Z,43.08
2016-06-23T12:14:33.828Z,43.28
2016-06-23T12:15:33.829Z,43.18
2016-06-23T12:16:33.830Z,42.6
2016-06-23T12:17:33.887Z,42.32
2016-06-23T12:18:33.835Z,41.83
2016-06-23T12:19:33.857Z,42.32
2016-06-23T12:20:33.842Z,42.13
2016-06-23T12:21:33.858Z,41.93
2016-06-23T12:22:33.866Z,41.44
2016-06-23T12:23:33.863Z,41.35
2016-06-23T12:24:33.866Z,41.44
2016-06-23T12:25:33.869Z,41.44
2016-06-23T12:26:33.872Z,41.25
2016-06-23T12:27:33.882Z,42.13
2016-06-23T12:28:33.888Z,42.52
2016-06-23T12:29:33.877Z,42.42
2016-06-23T12:30:33.880Z,42.81
2016-06-23T12:31:33.882Z,42.81
2016-06-23T12:32:33.890Z,43.2
2016-06-23T12:33:33.888Z,43.59
2016-06-23T12:34:33.905Z,43.4
2016-06-23T12:35:33.906Z,43.2
2016-06-23T12:36:33.904Z,43.01
2016-06-23T12:37:33.907Z,42.99
2016-06-23T12:38:33.907Z,43.4
2016-06-23T12:39:33.923Z,43.18
2016-06-23T12:40:33.919Z,42.99
2016-06-23T12:41:33.914Z,43.49
2016-06-23T12:42:33.920Z,43.48
2016-06-23T12:43:33.925Z,43.79
2016-06-23T12:44:33.921Z,43.69
2016-06-23T12:45:33.938Z,43.49
2016-06-23T12:46:33.933Z,43.4
2016-06-23T12:47:33.944Z,43.1
2016-06-23T12:48:33.939Z,43.1
2016-06-23T12:49:33.949Z,43.59
2016-06-23T12:50:33.951Z,43.49
2016-06-23T12:51:33.962Z,43.59
2016-06-23T12:52:33.968Z,43.3
2016-06-23T12:53:33.958Z,43.1
2016-06-23T12:54:33.955Z,42.22
2016-06-23T12:55:33.962Z,42.32
2016-06-23T12:56:33.971Z,42.71
2016-06-23T12:57:33.967Z,42.71